createdAt,value
2018-12-14T00:00:54.626Z,11.40
2018-12-14T00:03:23.470Z,12.98
2018-12-14T00:05:52.318Z,12.47
2018-12-14T00:08:21.179Z,12.67
2018-12-14T00:10:50.059Z,11.53
2018-12-14T00:13:18.872Z,12.50
2018-12-14T00:15:47.783Z,13.35
2018-12-14T00:18:16.583Z,13.17
2018-12-14T00:20:45.437Z,13.00
2018-12-14T00:23:14.277Z,13.25
2018-12-14T00:25:43.117Z,13.30
2018-12-14T00:28:11.959Z,12.30
2018-12-14T00:30:40.806Z,11.97
2018-12-14T00:33:09.667Z,11.97
2018-12-14T00:35:38.535Z,12.97
2018-12-14T00:38:07.375Z,12.57
2018-12-14T00:40:36.223Z,13.60
2018-12-14T00:43:05.072Z,12.90
2018-12-14T00:45:33.933Z,13.10
2018-12-14T00:48:02.768Z,13.40
2018-12-14T00:50:32.347Z,11.87
2018-12-14T00:53:01.197Z,12.07
2018-12-14T00:55:30.041Z,12.50
2018-12-14T00:57:58.865Z,12.13
2018-12-14T01:00:27.704Z,12.07
2018-12-14T01:02:56.551Z,12.70
2018-12-14T01:05:25.381Z,13.43
2018-12-14T01:07:54.223Z,13.77
2018-12-14T01:10:23.069Z,13.75
2018-12-14T01:12:51.902Z,12.23
2018-12-14T01:15:20.761Z,12.73
2018-12-14T01:17:49.596Z,12.93
2018-12-14T01:20:18.436Z,12.33
2018-12-14T01:22:48.033Z,13.77
2018-12-14T01:25:16.891Z,13.20
2018-12-14T01:27:45.739Z,13.33
2018-12-14T01:30:14.581Z,12.53
2018-12-14T01:32:43.423Z,12.70
2018-12-14T01:35:12.260Z,12.67
2018-12-14T01:37:41.108Z,12.50
2018-12-14T01:40:09.950Z,12.57
2018-12-14T01:42:38.785Z,12.60
2018-12-14T01:45:07.635Z,12.83
2018-12-14T01:47:37.217Z,12.83
2018-12-14T01:50:06.059Z,13.07
2018-12-14T01:52:34.892Z,12.93
2018-12-14T01:55:03.737Z,13.17
2018-12-14T01:57:32.573Z,12.50
2018-12-14T02:00:01.417Z,12.47
2018-12-14T02:02:30.252Z,13.23
2018-12-14T02:04:59.099Z,12.90
2018-12-14T02:07:27.935Z,13.27
2018-12-14T02:09:56.831Z,13.13
2018-12-14T02:12:25.683Z,12.60
2018-12-14T02:14:54.531Z,14.40
2018-12-14T02:17:24.104Z,13.60
2018-12-14T02:19:52.933Z,13.60
2018-12-14T02:22:21.777Z,14.03
2018-12-14T02:24:50.606Z,13.07
2018-12-14T02:27:19.438Z,13.23
2018-12-14T02:29:48.271Z,13.23
2018-12-14T02:32:17.105Z,13.17
2018-12-14T02:34:45.939Z,13.50
2018-12-14T02:37:14.793Z,13.33
2018-12-14T02:39:43.640Z,13.10
2018-12-14T02:42:19.290Z,13.20
2018-12-14T02:44:42.219Z,12.70
2018-12-14T02:47:11.060Z,11.90
2018-12-14T02:49:39.989Z,12.90
2018-12-14T02:52:09.475Z,13.33
2018-12-14T02:54:38.318Z,13.27
2018-12-14T02:57:07.169Z,13.63
2018-12-14T02:59:36.001Z,12.77
2018-12-14T03:02:04.850Z,14.00
2018-12-14T03:04:33.679Z,13.50
2018-12-14T03:07:02.516Z,13.40
2018-12-14T03:09:31.346Z,13.50
2018-12-14T03:12:00.204Z,12.93
2018-12-14T03:14:29.787Z,13.60
2018-12-14T03:16:58.623Z,13.40
2018-12-14T03:19:28.215Z,12.80
2018-12-14T03:21:57.063Z,13.47
2018-12-14T03:24:25.905Z,13.55
2018-12-14T03:26:55.497Z,21.13
2018-12-14T03:29:24.341Z,14.27
2018-12-14T03:31:53.193Z,12.90
2018-12-14T03:34:22.031Z,9.63
2018-12-14T03:36:50.877Z,13.85
2018-12-14T03:39:19.725Z,12.87
2018-12-14T03:41:48.576Z,12.40
2018-12-14T03:44:17.419Z,12.67
2018-12-14T03:46:46.264Z,12.63
2018-12-14T03:49:15.108Z,13.67
2018-12-14T03:51:44.692Z,13.47
2018-12-14T03:54:13.545Z,13.73
2018-12-14T03:56:42.409Z,13.60
2018-12-14T03:59:12.001Z,14.17
2018-12-14T04:01:41.605Z,13.87
2018-12-14T04:04:10.410Z,13.97
2018-12-14T04:06:39.256Z,14.27
2018-12-14T04:09:08.088Z,13.63
2018-12-14T04:11:36.931Z,14.57
2018-12-14T04:14:05.783Z,13.60
2018-12-14T04:16:34.633Z,14.63
2018-12-14T04:19:03.474Z,14.17
2018-12-14T04:21:32.327Z,13.33
2018-12-14T04:24:01.156Z,13.23
2018-12-14T04:26:29.984Z,13.73
2018-12-14T04:28:58.814Z,14.20
2018-12-14T04:31:27.653Z,13.87
2018-12-14T04:33:57.232Z,13.50
2018-12-14T04:36:26.058Z,14.97
2018-12-14T04:38:54.902Z,14.47
2018-12-14T04:41:23.744Z,13.97
2018-12-14T04:43:52.594Z,14.13
2018-12-14T04:46:21.428Z,14.00
2018-12-14T04:48:50.260Z,14.20
2018-12-14T04:51:19.090Z,14.20
2018-12-14T04:53:48.677Z,13.57
2018-12-14T04:56:17.497Z,14.07
2018-12-14T04:58:46.329Z,13.87
2018-12-14T05:01:15.175Z,13.07
2018-12-14T05:03:44.026Z,14.20
2018-12-14T05:06:12.864Z,13.93
2018-12-14T05:08:41.709Z,13.93
2018-12-14T05:11:10.553Z,14.33
2018-12-14T05:13:39.385Z,14.87
2018-12-14T05:16:08.236Z,13.33
2018-12-14T05:18:37.062Z,15.15
2018-12-14T05:21:05.902Z,14.10
2018-12-14T05:23:34.746Z,14.90
2018-12-14T05:26:03.580Z,13.73
2018-12-14T05:28:32.423Z,13.80
2018-12-14T05:31:02.025Z,14.10
2018-12-14T05:33:30.848Z,13.80
2018-12-14T05:35:59.683Z,13.80
2018-12-14T05:38:28.519Z,13.53
2018-12-14T05:40:57.356Z,14.03
2018-12-14T05:43:26.241Z,13.90
2018-12-14T05:45:55.030Z,14.10
2018-12-14T05:48:23.871Z,13.77
2018-12-14T05:50:52.712Z,13.70
2018-12-14T05:53:21.554Z,13.53
2018-12-14T05:55:50.426Z,14.00
2018-12-14T05:58:19.223Z,14.20
2018-12-14T06:00:48.066Z,13.10
2018-12-14T06:03:16.909Z,14.20
2018-12-14T06:05:46.489Z,14.17
2018-12-14T06:08:15.330Z,14.23
2018-12-14T06:10:44.206Z,14.37
2018-12-14T06:13:13.015Z,14.57
2018-12-14T06:15:42.178Z,13.43
2018-12-14T06:18:10.935Z,14.23
2018-12-14T06:20:39.780Z,14.60
2018-12-14T06:23:08.634Z,14.20
2018-12-14T06:25:37.502Z,13.37
2018-12-14T06:28:06.322Z,15.63
2018-12-14T06:30:35.221Z,14.17
2018-12-14T06:33:04.054Z,18.10
2018-12-14T06:35:32.886Z,13.37
2018-12-14T06:38:01.743Z,14.50
2018-12-14T06:40:30.600Z,18.23
2018-12-14T06:42:59.455Z,18.67
2018-12-14T06:45:29.026Z,27.10
2018-12-14T06:47:57.907Z,22.33
2018-12-14T06:50:26.758Z,24.97
2018-12-14T06:52:55.601Z,22.40
2018-12-14T06:55:24.435Z,15.80
2018-12-14T06:57:53.277Z,16.77
2018-12-14T07:00:22.110Z,15.53
2018-12-14T07:02:50.964Z,14.43
2018-12-14T07:05:19.801Z,15.33
2018-12-14T07:07:48.641Z,14.50
2018-12-14T07:10:17.489Z,13.77
2018-12-14T07:12:46.321Z,14.00
2018-12-14T07:15:15.164Z,14.57
2018-12-14T07:17:44.006Z,13.50
2018-12-14T07:20:12.865Z,14.17
2018-12-14T07:22:41.709Z,15.75
2018-12-14T07:25:10.546Z,15.20
2018-12-14T07:27:39.377Z,13.37
2018-12-14T07:30:08.225Z,13.50
2018-12-14T07:32:38.146Z,14.70
2018-12-14T07:35:05.893Z,16.30
2018-12-14T07:37:34.733Z,15.23
2018-12-14T07:40:03.569Z,14.43
2018-12-14T07:42:32.405Z,14.47
2018-12-14T07:45:01.250Z,13.73
2018-12-14T07:47:30.077Z,13.93
2018-12-14T07:49:59.666Z,14.37
2018-12-14T07:52:28.516Z,14.60
2018-12-14T07:54:57.351Z,13.37
2018-12-14T07:57:26.938Z,14.23
2018-12-14T07:59:55.778Z,15.37
2018-12-14T08:02:24.623Z,15.75
2018-12-14T08:04:53.477Z,13.90
2018-12-14T08:07:22.310Z,14.50
2018-12-14T08:09:51.893Z,14.93
2018-12-14T08:12:20.735Z,13.83
2018-12-14T08:14:49.563Z,14.10
2018-12-14T08:17:18.411Z,14.70
2018-12-14T08:19:47.244Z,14.77
2018-12-14T08:22:16.087Z,14.63
2018-12-14T08:24:44.919Z,14.20
2018-12-14T08:27:13.767Z,11.57
2018-12-14T08:29:42.612Z,14.47
2018-12-14T08:32:11.455Z,13.47
2018-12-14T08:34:40.303Z,13.60
2018-12-14T08:37:09.199Z,13.50
2018-12-14T08:39:38.045Z,15.20
2018-12-14T08:42:06.849Z,14.73
2018-12-14T08:44:35.684Z,14.77
2018-12-14T08:47:04.512Z,14.37
2018-12-14T08:49:33.361Z,14.40
2018-12-14T08:52:02.215Z,14.33
2018-12-14T08:54:31.052Z,14.03
2018-12-14T08:56:59.893Z,14.53
2018-12-14T08:59:28.750Z,14.40
2018-12-14T09:01:57.584Z,14.00
2018-12-14T09:04:26.422Z,13.83
2018-12-14T09:06:55.258Z,14.27
2018-12-14T09:09:24.096Z,14.33
2018-12-14T09:11:52.932Z,14.98
2018-12-14T09:14:21.777Z,14.90
2018-12-14T09:16:50.610Z,15.07
2018-12-14T09:19:19.445Z,16.13
2018-12-14T09:21:48.282Z,15.33
2018-12-14T09:24:17.102Z,13.33
2018-12-14T09:26:45.938Z,14.87
2018-12-14T09:29:14.772Z,14.47
2018-12-14T09:31:44.350Z,13.87
2018-12-14T09:34:13.176Z,14.57
2018-12-14T09:36:42.012Z,14.33
2018-12-14T09:39:10.853Z,14.50
2018-12-14T09:41:40.449Z,14.43
2018-12-14T09:44:09.300Z,14.80
2018-12-14T09:46:38.143Z,15.40
2018-12-14T09:49:06.978Z,14.87
2018-12-14T09:51:35.813Z,14.53
2018-12-14T09:54:05.406Z,15.47
2018-12-14T09:56:34.990Z,14.40
2018-12-14T09:59:03.826Z,15.00
2018-12-14T10:01:32.659Z,15.10
2018-12-14T10:04:01.502Z,15.80
2018-12-14T10:06:30.347Z,15.63
2018-12-14T10:08:59.182Z,14.40
2018-12-14T10:11:28.012Z,13.93
2018-12-14T10:14:00.824Z,13.90
2018-12-14T10:16:25.679Z,14.63
2018-12-14T10:18:54.530Z,14.37
2018-12-14T10:21:23.358Z,14.97
2018-12-14T10:23:52.196Z,14.50
2018-12-14T10:26:21.780Z,14.03
2018-12-14T10:28:50.612Z,15.10
2018-12-14T10:31:19.460Z,15.10
2018-12-14T10:33:48.294Z,14.10
2018-12-14T10:36:17.131Z,14.27
2018-12-14T10:38:45.974Z,14.23
2018-12-14T10:41:14.817Z,14.63
2018-12-14T10:43:43.642Z,14.40
2018-12-14T10:46:12.479Z,14.63
2018-12-14T10:48:41.317Z,14.50
2018-12-14T10:51:10.155Z,14.47
2018-12-14T10:53:39.033Z,14.43
2018-12-14T10:56:07.826Z,14.53
2018-12-14T10:58:36.666Z,14.00
2018-12-14T11:01:14.376Z,14.80
2018-12-14T11:03:39.977Z,14.37
2018-12-14T11:06:08.821Z,15.60
2018-12-14T11:08:37.652Z,15.40
2018-12-14T11:11:07.235Z,14.70
2018-12-14T11:13:36.081Z,11.50
2018-12-14T11:16:04.925Z,16.02
2018-12-14T11:18:33.787Z,13.87
2018-12-14T11:21:02.627Z,15.55
2018-12-14T11:23:31.477Z,13.90
2018-12-14T11:26:00.907Z,14.57
2018-12-14T11:28:29.746Z,14.70
2018-12-14T11:30:58.579Z,14.33
2018-12-14T11:33:27.407Z,15.17
2018-12-14T11:35:56.248Z,15.03
2018-12-14T11:38:25.838Z,14.30
2018-12-14T11:40:54.662Z,15.47
2018-12-14T11:43:23.515Z,14.63
2018-12-14T11:45:52.363Z,15.40
2018-12-14T11:48:21.188Z,15.27
2018-12-14T11:50:50.023Z,14.00
2018-12-14T11:53:19.743Z,14.77
2018-12-14T11:55:48.602Z,15.60
2018-12-14T11:58:17.441Z,15.45
2018-12-14T12:00:47.017Z,14.00
2018-12-14T12:03:15.850Z,13.83
2018-12-14T12:05:45.431Z,13.57
2018-12-14T12:08:15.019Z,13.90
2018-12-14T12:10:43.863Z,13.60
2018-12-14T12:13:12.703Z,14.23
2018-12-14T12:15:41.555Z,14.63
2018-12-14T12:18:10.403Z,15.00
2018-12-14T12:20:39.259Z,14.83
2018-12-14T12:23:08.101Z,15.60
2018-12-14T12:25:36.940Z,17.40
2018-12-14T12:28:05.778Z,21.93
2018-12-14T12:30:34.631Z,18.90
2018-12-14T12:33:03.551Z,18.93
2018-12-14T12:35:32.368Z,19.17
2018-12-14T12:38:01.211Z,17.13
2018-12-14T12:40:30.806Z,15.63
2018-12-14T12:42:59.649Z,15.57
2018-12-14T12:45:28.484Z,15.63
2018-12-14T12:47:57.334Z,15.33
2018-12-14T12:50:26.165Z,16.00
2018-12-14T12:52:55.011Z,13.57
2018-12-14T12:55:23.850Z,15.03
2018-12-14T12:57:52.685Z,14.93
2018-12-14T13:00:21.512Z,15.40
2018-12-14T13:02:50.362Z,14.20
2018-12-14T13:05:19.199Z,14.00
2018-12-14T13:07:48.789Z,14.27
2018-12-14T13:10:17.629Z,15.03
2018-12-14T13:12:46.461Z,14.37
2018-12-14T13:15:15.302Z,14.60
2018-12-14T13:17:44.142Z,11.43
2018-12-14T13:20:12.982Z,15.63
2018-12-14T13:22:41.827Z,16.03
2018-12-14T13:25:10.654Z,14.83
2018-12-14T13:27:39.581Z,15.77
2018-12-14T13:30:08.420Z,15.30
2018-12-14T13:32:37.299Z,16.40
2018-12-14T13:35:06.082Z,15.33
2018-12-14T13:37:35.659Z,15.10
2018-12-14T13:40:04.493Z,14.40
2018-12-14T13:42:33.345Z,14.23
2018-12-14T13:45:02.177Z,14.87
2018-12-14T13:47:31.046Z,14.13
2018-12-14T13:49:59.864Z,13.87
2018-12-14T13:52:29.280Z,14.43
2018-12-14T13:54:57.581Z,14.93
2018-12-14T13:57:26.418Z,15.75
2018-12-14T13:59:55.273Z,14.57
2018-12-14T14:02:24.108Z,15.40
2018-12-14T14:04:52.964Z,14.73
2018-12-14T14:07:21.800Z,14.20
2018-12-14T14:09:50.629Z,12.27
2018-12-14T14:12:19.464Z,14.60
2018-12-14T14:14:52.971Z,15.57
2018-12-14T14:17:17.171Z,14.73
2018-12-14T14:19:46.007Z,14.77
2018-12-14T14:22:15.575Z,13.37
2018-12-14T14:24:44.424Z,14.67
2018-12-14T14:27:13.274Z,15.48
2018-12-14T14:29:42.126Z,14.23
2018-12-14T14:32:10.967Z,15.32
2018-12-14T14:34:40.594Z,14.03
2018-12-14T14:37:09.426Z,15.27
2018-12-14T14:39:38.280Z,14.13
2018-12-14T14:42:07.121Z,13.63
2018-12-14T14:44:35.965Z,15.00
2018-12-14T14:47:04.873Z,15.37
2018-12-14T14:49:33.651Z,19.33
2018-12-14T14:52:02.485Z,17.10
2018-12-14T14:54:32.223Z,14.73
2018-12-14T14:57:01.080Z,15.27
2018-12-14T14:59:29.915Z,14.43
2018-12-14T15:01:58.737Z,14.23
2018-12-14T15:04:27.571Z,15.57
2018-12-14T15:06:56.394Z,14.57
2018-12-14T15:09:25.241Z,16.10
2018-12-14T15:11:54.142Z,15.70
2018-12-14T15:14:23.719Z,16.67
2018-12-14T15:16:52.589Z,17.50
2018-12-14T15:19:21.434Z,17.00
2018-12-14T15:21:50.276Z,14.10
2018-12-14T15:24:19.118Z,15.27
2018-12-14T15:26:47.963Z,14.03
2018-12-14T15:29:16.811Z,15.90
2018-12-14T15:31:45.670Z,15.07
2018-12-14T15:34:14.707Z,14.33
2018-12-14T15:36:43.378Z,15.93
2018-12-14T15:39:12.221Z,15.37
2018-12-14T15:41:41.062Z,16.13
2018-12-14T15:44:09.905Z,15.20
2018-12-14T15:46:39.494Z,14.80
2018-12-14T15:49:08.348Z,14.40
2018-12-14T15:51:37.200Z,12.70
2018-12-14T15:54:06.790Z,16.83
2018-12-14T15:56:35.637Z,15.60
2018-12-14T15:59:04.483Z,14.30
2018-12-14T16:01:34.078Z,14.90
2018-12-14T16:04:02.918Z,15.00
2018-12-14T16:06:31.762Z,14.40
2018-12-14T16:09:00.611Z,16.23
2018-12-14T16:11:29.473Z,16.87
2018-12-14T16:13:58.293Z,15.80
2018-12-14T16:16:27.156Z,15.97
2018-12-14T16:18:56.040Z,16.33
2018-12-14T16:21:25.595Z,14.70
2018-12-14T16:23:54.453Z,15.67
2018-12-14T16:26:23.315Z,11.77
2018-12-14T16:28:52.140Z,14.47
2018-12-14T16:31:20.989Z,15.27
2018-12-14T16:33:49.833Z,15.03
2018-12-14T16:36:18.780Z,15.83
2018-12-14T16:38:48.324Z,16.20
2018-12-14T16:41:17.167Z,14.97
2018-12-14T16:43:46.017Z,15.87
2018-12-14T16:46:14.858Z,16.83
2018-12-14T16:48:43.704Z,15.50
2018-12-14T16:51:12.572Z,14.60
2018-12-14T16:53:47.025Z,15.60
2018-12-14T16:56:16.605Z,15.17
2018-12-14T16:58:45.445Z,15.17
2018-12-14T17:01:14.280Z,16.08
2018-12-14T17:03:43.128Z,14.93
2018-12-14T17:06:11.967Z,13.90
2018-12-14T17:08:40.833Z,14.13
2018-12-14T17:11:09.710Z,15.90
2018-12-14T17:13:39.253Z,14.27
2018-12-14T17:16:08.137Z,15.00
2018-12-14T17:18:36.939Z,19.37
2018-12-14T17:21:05.784Z,16.10
2018-12-14T17:23:34.621Z,15.63
2018-12-14T17:26:03.505Z,16.47
2018-12-14T17:28:32.913Z,15.90
2018-12-14T17:31:01.759Z,14.67
2018-12-14T17:33:36.097Z,14.73
2018-12-14T17:35:59.451Z,15.40
2018-12-14T17:38:28.342Z,16.20
2018-12-14T17:40:57.159Z,15.40
2018-12-14T17:43:26.014Z,14.83
2018-12-14T17:45:54.905Z,16.70
2018-12-14T17:48:23.734Z,17.10
2018-12-14T17:50:53.331Z,14.77
2018-12-14T17:53:22.171Z,16.30
2018-12-14T17:55:51.023Z,17.40
2018-12-14T17:58:20.604Z,15.63
2018-12-14T18:00:49.455Z,17.70
2018-12-14T18:03:18.303Z,14.70
2018-12-14T18:05:47.152Z,15.20
2018-12-14T18:08:15.989Z,15.85
2018-12-14T18:10:44.833Z,16.60
2018-12-14T18:13:13.675Z,15.57
2018-12-14T18:15:46.393Z,16.53
2018-12-14T18:18:11.356Z,15.67
2018-12-14T18:20:40.193Z,15.40
2018-12-14T18:23:09.069Z,14.20
2018-12-14T18:25:37.880Z,14.93
2018-12-14T18:28:06.726Z,15.30
2018-12-14T18:30:35.576Z,15.43
2018-12-14T18:33:04.416Z,17.33
2018-12-14T18:35:33.302Z,16.53
2018-12-14T18:38:02.172Z,22.47
2018-12-14T18:40:31.025Z,18.93
2018-12-14T18:42:59.825Z,18.73
2018-12-14T18:45:29.413Z,15.33
2018-12-14T18:47:58.248Z,17.90
2018-12-14T18:50:27.087Z,18.13
2018-12-14T18:52:55.927Z,16.20
2018-12-14T18:55:24.786Z,16.40
2018-12-14T18:57:54.372Z,17.23
2018-12-14T19:00:23.224Z,20.10
2018-12-14T19:02:52.066Z,18.10
2018-12-14T19:05:21.656Z,18.53
2018-12-14T19:07:50.500Z,20.93
2018-12-14T19:10:19.359Z,20.00
2018-12-14T19:12:48.950Z,24.13
2018-12-14T19:15:17.817Z,28.40
2018-12-14T19:17:46.674Z,27.93
2018-12-14T19:20:15.507Z,27.57
2018-12-14T19:22:44.360Z,32.30
2018-12-14T19:25:13.211Z,26.87
2018-12-14T19:27:42.798Z,25.60
2018-12-14T19:30:11.682Z,27.57
2018-12-14T19:32:40.536Z,27.80
2018-12-14T19:35:09.405Z,19.93
2018-12-14T19:37:38.245Z,19.20
2018-12-14T19:40:07.110Z,20.88
2018-12-14T19:42:35.945Z,17.83
2018-12-14T19:45:05.539Z,17.83
2018-12-14T19:47:34.438Z,18.40
2018-12-14T19:50:03.251Z,21.80
2018-12-14T19:52:32.863Z,21.17
2018-12-14T19:55:01.686Z,19.30
2018-12-14T19:57:30.527Z,17.83
2018-12-14T20:00:00.134Z,16.07
2018-12-14T20:02:29.750Z,17.77
2018-12-14T20:04:58.565Z,17.13
2018-12-14T20:07:27.403Z,16.23
2018-12-14T20:09:56.373Z,15.23
2018-12-14T20:12:25.185Z,18.05
2018-12-14T20:14:54.033Z,17.87
2018-12-14T20:17:22.915Z,16.53
2018-12-14T20:19:52.471Z,17.85
2018-12-14T20:22:21.313Z,17.17
2018-12-14T20:24:50.170Z,17.53
2018-12-14T20:27:19.740Z,16.90
2018-12-14T20:29:48.583Z,17.70
2018-12-14T20:32:17.422Z,17.33
2018-12-14T20:34:46.308Z,17.17
2018-12-14T20:37:15.214Z,16.20
2018-12-14T20:39:44.783Z,16.33
2018-12-14T20:42:13.632Z,17.90
2018-12-14T20:44:42.465Z,17.60
2018-12-14T20:47:11.293Z,15.73
2018-12-14T20:49:40.139Z,16.87
2018-12-14T20:52:08.985Z,15.43
2018-12-14T20:54:37.848Z,15.33
2018-12-14T20:57:07.276Z,19.90
2018-12-14T20:59:36.131Z,18.33
2018-12-14T21:02:04.965Z,17.77
2018-12-14T21:04:33.807Z,17.90
2018-12-14T21:07:03.240Z,13.60
2018-12-14T21:09:32.845Z,17.63
2018-12-14T21:12:01.695Z,16.93
2018-12-14T21:14:30.543Z,15.70
2018-12-14T21:16:59.384Z,17.27
2018-12-14T21:19:28.252Z,17.90
2018-12-14T21:21:57.115Z,16.73
2018-12-14T21:24:25.963Z,20.20
2018-12-14T21:26:54.810Z,19.43
2018-12-14T21:29:23.655Z,22.30
2018-12-14T21:31:53.251Z,18.77
2018-12-14T21:34:22.842Z,18.47
2018-12-14T21:36:51.681Z,19.27
2018-12-14T21:39:20.561Z,19.10
2018-12-14T21:41:49.363Z,19.77
2018-12-14T21:44:18.198Z,17.70
2018-12-14T21:46:47.055Z,19.13
2018-12-14T21:49:15.918Z,18.30
2018-12-14T21:51:44.753Z,18.63
2018-12-14T21:54:13.583Z,17.57
2018-12-14T21:56:43.158Z,16.63
2018-12-14T21:59:12.592Z,16.30
2018-12-14T22:01:41.430Z,15.80
2018-12-14T22:04:10.282Z,16.80
2018-12-14T22:06:39.161Z,16.37
2018-12-14T22:09:08.003Z,16.50
2018-12-14T22:11:36.847Z,16.03
2018-12-14T22:14:06.510Z,15.57
2018-12-14T22:16:39.231Z,15.83
2018-12-14T22:19:04.098Z,15.83
2018-12-14T22:21:32.950Z,16.63
2018-12-14T22:24:01.847Z,18.55
2018-12-14T22:26:32.580Z,17.33
2018-12-14T22:29:01.406Z,16.97
2018-12-14T22:31:30.333Z,18.30
2018-12-14T22:33:59.156Z,18.30
2018-12-14T22:36:27.962Z,16.20
2018-12-14T22:38:56.814Z,17.40
2018-12-14T22:41:25.669Z,17.83
2018-12-14T22:43:54.503Z,17.33
2018-12-14T22:46:23.355Z,21.03
2018-12-14T22:48:52.941Z,20.97
2018-12-14T22:51:22.542Z,20.97
2018-12-14T22:53:51.450Z,19.37
2018-12-14T22:56:20.236Z,17.87
2018-12-14T22:58:49.088Z,17.93
2018-12-14T23:01:17.975Z,20.80
2018-12-14T23:03:46.810Z,23.50
2018-12-14T23:06:15.654Z,17.83
2018-12-14T23:08:44.491Z,17.70
2018-12-14T23:11:13.351Z,17.37
2018-12-14T23:13:42.203Z,17.17
2018-12-14T23:16:11.147Z,16.10
2018-12-14T23:18:39.950Z,16.37
2018-12-14T23:21:08.800Z,17.50
2018-12-14T23:23:37.648Z,16.17
2018-12-14T23:26:06.495Z,15.93
2018-12-14T23:28:35.326Z,15.37
2018-12-14T23:31:04.184Z,15.53
2018-12-14T23:33:33.102Z,14.93
2018-12-14T23:36:02.652Z,14.77
2018-12-14T23:38:31.752Z,15.07
2018-12-14T23:41:01.261Z,15.13
2018-12-14T23:43:30.064Z,14.90
2018-12-14T23:45:58.902Z,14.83
2018-12-14T23:48:27.763Z,13.97
2018-12-14T23:50:56.662Z,15.33
2018-12-14T23:53:25.476Z,15.53
2018-12-14T23:55:54.316Z,15.87
2018-12-14T23:58:23.152Z,16.70
